Time,TemperatureF,DewpointF,PressureIn,WindDirection,WindDirectionDegrees,WindSpeedMPH,WindSpeedGustMPH,Humidity,HourlyPrecipIn,Conditions,Clouds,dailyrainin,SolarRadiationWatts/m^2,SoftwareType,DateUTC
2013-08-05 00:00:00,59.2,54.0,29.99,West,267,0.0,0.0,83,0.00,,---,0.04,0.00,VWS V14.01,2013-08-05 04:00:00,
2013-08-05 00:01:00,55.8,53.2,30.00,West,267,0.0,0.0,91,0.00,,---,0.00,0.00,VWS V14.01,2013-08-05 04:01:00,
2013-08-05 00:06:00,55.7,53.1,30.00,West,267,0.0,0.0,91,0.00,,---,0.00,0.00,VWS V14.01,2013-08-05 04:06:00,
2013-08-05 00:11:00,55.6,53.0,30.00,West,267,0.0,0.0,91,0.00,,---,0.00,0.00,VWS V14.01,2013-08-05 04:11:00,
2013-08-05 00:16:00,55.6,53.3,30.00,West,267,0.0,0.0,92,0.00,,---,0.00,0.00,VWS V14.01,2013-08-05 04:16:00,
2013-08-05 00:21:00,55.6,53.3,29.99,West,267,0.0,0.0,92,0.00,,---,0.00,0.00,VWS V14.01,2013-08-05 04:21:00,
2013-08-05 00:26:00,55.5,53.2,29.99,West,267,0.0,0.0,92,0.00,,---,0.00,0.00,VWS V14.01,2013-08-05 04:26:00,
2013-08-05 00:30:00,57.0,53.5,29.99,West,267,0.0,0.0,88,0.00,,---,0.04,0.00,VWS V14.01,2013-08-05 04:30:00,
2013-08-05 00:31:00,55.5,53.2,30.00,West,267,0.0,0.0,92,0.00,,---,0.00,0.00,VWS V14.01,2013-08-05 04:31:00,
2013-08-05 00:36:00,55.5,53.2,29.99,West,267,0.0,0.0,92,0.00,,---,0.00,0.00,VWS V14.01,2013-08-05 04:36:00,
2013-08-05 00:41:00,55.5,53.2,29.99,West,267,0.0,0.0,92,0.00,,---,0.00,0.00,VWS V14.01,2013-08-05 04:41:00,
2013-08-05 00:46:00,55.5,53.2,29.99,West,267,0.0,0.0,92,0.00,,---,0.00,0.00,VWS V14.01,2013-08-05 04:46:00,
2013-08-05 00:51:00,55.5,53.5,29.99,West,267,0.0,0.0,93,0.00,,---,0.00,0.00,VWS V14.01,2013-08-05 04:51:00,
2013-08-05 00:56:00,55.6,53.6,29.99,West,267,0.0,0.0,93,0.00,,---,0.00,0.00,VWS V14.01,2013-08-05 04:56:00,
2013-08-05 01:00:00,55.8,53.2,30.00,West,267,0.0,0.0,91,0.00,,---,0.00,0.00,VWS V14.01,2013-08-05 05:00:00,
2013-08-05 01:01:00,55.5,53.5,29.99,West,267,0.0,0.0,93,0.00,,---,0.00,0.00,VWS V14.01,2013-08-05 05:01:00,
2013-08-05 01:06:00,55.5,53.5,29.99,West,267,0.0,0.0,93,0.00,,---,0.00,0.00,VWS V14.01,2013-08-05 05:06:00,
2013-08-05 01:11:00,55.4,53.4,29.99,West,267,0.0,0.0,93,0.00,,---,0.00,0.00,VWS V14.01,2013-08-05 05:11:00,
2013-08-05 01:17:00,55.3,53.3,29.99,West,267,0.0,0.0,93,0.00,,---,0.00,0.00,VWS V14.01,2013-08-05 05:17:00,
2013-08-05 01:22:00,55.2,53.2,29.99,West,267,0.0,0.0,93,0.00,,---,0.00,0.00,VWS V14.01,2013-08-05 05:22:00,
2013-08-05 01:27:00,55.1,53.1,29.99,West,267,0.0,0.0,93,0.00,,---,0.00,0.00,VWS V14.01,2013-08-05 05:27:00,
2013-08-05 01:30:00,55.5,53.2,29.99,West,267,0.0,0.0,92,0.00,,---,0.00,0.00,VWS V14.01,2013-08-05 05:30:00,
2013-08-05 01:32:00,55.0,53.0,29.99,West,267,0.0,0.0,93,0.00,,---,0.00,0.00,VWS V14.01,2013-08-05 05:32:00,
2013-08-05 01:37:00,55.0,53.3,29.99,West,267,0.0,0.0,94,0.00,,---,0.00,0.00,VWS V14.01,2013-08-05 05:37:00,
2013-08-05 01:41:00,55.1,53.4,29.99,West,267,0.0,0.0,94,0.00,,---,0.00,0.00,VWS V14.01,2013-08-05 05:41:00,
2013-08-05 01:47:00,55.3,53.6,29.99,West,267,0.0,0.0,94,0.00,,---,0.00,0.00,VWS V14.01,2013-08-05 05:47:00,
2013-08-05 01:52:00,55.4,53.7,29.99,West,267,0.0,0.0,94,0.00,,---,0.00,0.00,VWS V14.01,2013-08-05 05:52:00,
2013-08-05 01:56:00,55.5,53.8,29.99,West,267,0.0,0.0,94,0.00,,---,0.00,0.00,VWS V14.01,2013-08-05 05:56:00,
2013-08-05 02:00:00,55.6,53.6,29.99,West,267,0.0,0.0,93,0.00,,---,0.00,0.00,VWS V14.01,2013-08-05 06:00:00,
2013-08-05 02:02:00,55.5,53.8,29.99,West,267,0.0,0.0,94,0.00,,---,0.00,0.00,VWS V14.01,2013-08-05 06:02:00,
2013-08-05 02:07:00,55.5,53.8,29.99,West,267,0.0,0.0,94,0.00,,---,0.00,0.00,VWS V14.01,2013-08-05 06:07:00,
2013-08-05 02:12:00,55.4,53.7,29.99,West,267,0.0,0.0,94,0.00,,---,0.00,0.00,VWS V14.01,2013-08-05 06:12:00,
2013-08-05 02:17:00,55.4,53.7,29.99,West,267,0.0,0.0,94,0.00,,---,0.00,0.00,VWS V14.01,2013-08-05 06:17:00,
2013-08-05 02:22:00,55.5,53.8,29.99,West,267,0.0,0.0,94,0.00,,---,0.00,0.00,VWS V14.01,2013-08-05 06:22:00,
2013-08-05 02:27:00,55.7,54.0,29.99,West,267,0.0,0.0,94,0.00,,---,0.00,0.00,VWS V14.01,2013-08-05 06:27:00,
2013-08-05 02:30:00,55.0,53.0,29.99,West,267,0.0,0.0,93,0.00,,---,0.00,0.00,VWS V14.01,2013-08-05 06:30:00,
2013-08-05 02:32:00,55.8,54.1,29.99,West,267,0.0,0.0,94,0.00,,---,0.00,0.00,VWS V14.01,2013-08-05 06:32:00,
2013-08-05 02:37:00,55.7,54.0,29.99,West,267,0.0,0.0,94,0.00,,---,0.00,0.00,VWS V14.01,2013-08-05 06:37:00,
2013-08-05 02:42:00,55.5,53.8,29.99,West,267,0.0,0.0,94,0.00,,---,0.00,0.00,VWS V14.01,2013-08-05 06:42:00,
2013-08-05 02:47:00,55.4,53.7,30.00,West,267,0.0,0.0,94,0.00,,---,0.00,0.00,VWS V14.01,2013-08-05 06:47:00,
2013-08-05 02:52:00,55.2,53.5,30.00,West,267,0.0,0.0,94,0.00,,---,0.00,0.00,VWS V14.01,2013-08-05 06:52:00,
2013-08-05 02:56:00,55.1,53.4,30.00,West,267,0.0,0.0,94,0.00,,---,0.00,0.00,VWS V14.01,2013-08-05 06:56:00,
2013-08-05 03:00:00,55.5,53.8,30.00,West,267,0.0,0.0,94,0.00,,---,0.00,0.00,VWS V14.01,2013-08-05 07:00:00,
2013-08-05 03:01:00,54.9,53.2,30.00,West,267,0.0,0.0,94,0.00,,---,0.00,0.00,VWS V14.01,2013-08-05 07:01:00,
2013-08-05 03:07:00,54.8,53.1,30.00,West,267,0.0,0.0,94,0.00,,---,0.00,0.00,VWS V14.01,2013-08-05 07:07:00,
2013-08-05 03:12:00,54.6,52.9,30.00,West,267,0.0,0.0,94,0.00,,---,0.00,0.00,VWS V14.01,2013-08-05 07:12:00,
2013-08-05 03:17:00,54.4,52.7,30.00,West,267,0.0,0.0,94,0.00,,---,0.00,0.00,VWS V14.01,2013-08-05 07:17:00,
2013-08-05 03:21:00,54.2,52.5,30.00,West,267,0.0,0.0,94,0.00,,---,0.00,0.00,VWS V14.01,2013-08-05 07:21:00,
2013-08-05 03:27:00,54.0,52.3,30.00,West,267,0.0,0.0,94,0.00,,---,0.00,0.00,VWS V14.01,2013-08-05 07:27:00,
2013-08-05 03:30:00,55.8,54.4,29.99,West,267,0.0,0.0,95,0.00,,---,0.00,0.00,VWS V14.01,2013-08-05 07:30:00,
2013-08-05 03:32:00,53.9,52.5,30.01,West,267,0.0,0.0,95,0.00,,---,0.00,0.00,VWS V14.01,2013-08-05 07:32:00,
2013-08-05 03:37:00,53.9,52.5,30.01,West,267,0.0,0.0,95,0.00,,---,0.00,0.00,VWS V14.01,2013-08-05 07:37:00,
2013-08-05 03:42:00,53.9,52.5,30.01,West,267,0.0,0.0,95,0.00,,---,0.00,0.00,VWS V14.01,2013-08-05 07:42:00,
2013-08-05 03:46:00,53.7,52.3,30.00,West,267,0.0,0.0,95,0.00,,---,0.00,0.00,VWS V14.01,2013-08-05 07:46:00,
2013-08-05 03:52:00,53.6,52.2,30.01,West,267,0.0,0.0,95,0.00,,---,0.00,0.00,VWS V14.01,2013-08-05 07:52:00,
2013-08-05 03:57:00,53.4,52.0,30.00,West,267,0.0,0.0,95,0.00,,---,0.00,0.00,VWS V14.01,2013-08-05 07:57:00,
2013-08-05 04:00:00,55.0,53.3,30.00,West,267,0.0,0.0,94,0.00,,---,0.00,0.00,VWS V14.01,2013-08-05 08:00:00,
2013-08-05 04:02:00,53.2,51.8,30.01,West,267,0.0,0.0,95,0.00,,---,0.00,0.00,VWS V14.01,2013-08-05 08:02:00,
2013-08-05 04:07:00,52.9,51.5,30.01,West,267,0.0,0.0,95,0.00,,---,0.00,0.00,VWS V14.01,2013-08-05 08:07:00,
2013-08-05 04:12:00,52.7,51.3,30.01,West,267,0.0,0.0,95,0.00,,---,0.00,0.00,VWS V14.01,2013-08-05 08:12:00,
2013-08-05 04:17:00,52.6,51.2,30.01,West,267,0.0,0.0,95,0.00,,---,0.00,0.00,VWS V14.01,2013-08-05 08:17:00,
2013-08-05 04:22:00,52.4,51.0,30.01,West,267,0.0,0.0,95,0.00,,---,0.00,0.00,VWS V14.01,2013-08-05 08:22:00,
2013-08-05 04:27:00,52.2,50.8,30.01,West,267,0.0,0.0,95,0.00,,---,0.00,0.00,VWS V14.01,2013-08-05 08:27:00,
2013-08-05 04:30:00,54.0,52.6,30.01,West,267,0.0,0.0,95,0.00,,---,0.00,0.00,VWS V14.01,2013-08-05 08:30:00,
2013-08-05 04:32:00,52.1,50.7,30.01,West,267,0.0,0.0,95,0.00,,---,0.00,0.00,VWS V14.01,2013-08-05 08:32:00,
2013-08-05 04:37:00,52.0,50.6,30.01,West,267,0.0,0.0,95,0.00,,---,0.00,0.00,VWS V14.01,2013-08-05 08:37:00,
2013-08-05 04:42:00,52.1,51.0,30.01,West,267,0.0,4.0,96,0.00,,---,0.00,0.00,VWS V14.01,2013-08-05 08:42:00,
2013-08-05 04:47:00,52.2,51.1,30.01,West,267,0.0,4.0,96,0.00,,---,0.00,0.00,VWS V14.01,2013-08-05 08:47:00,
2013-08-05 04:52:00,52.2,51.1,30.02,West,267,0.0,4.0,96,0.00,,---,0.00,0.00,VWS V14.01,2013-08-05 08:52:00,
2013-08-05 04:57:00,51.9,50.5,30.02,West,267,0.0,4.0,95,0.00,,---,0.00,0.00,VWS V14.01,2013-08-05 08:57:00,
2013-08-05 05:00:00,53.3,51.9,30.01,West,267,0.0,0.0,95,0.00,,---,0.00,0.00,VWS V14.01,2013-08-05 09:00:00,
2013-08-05 05:02:00,51.4,50.0,30.02,West,267,0.0,0.0,95,0.00,,---,0.00,0.00,VWS V14.01,2013-08-05 09:02:00,
2013-08-05 05:07:00,51.1,49.7,30.02,West,267,0.0,0.0,95,0.00,,---,0.00,0.00,VWS V14.01,2013-08-05 09:07:00,
2013-08-05 05:12:00,50.9,49.5,30.02,West,267,0.0,0.0,95,0.00,,---,0.00,0.00,VWS V14.01,2013-08-05 09:12:00,
2013-08-05 05:17:00,50.8,49.4,30.03,West,267,0.0,0.0,95,0.00,,---,0.00,0.00,VWS V14.01,2013-08-05 09:17:00,
2013-08-05 05:22:00,50.5,49.1,30.03,West,267,0.0,0.0,95,0.00,,---,0.00,0.00,VWS V14.01,2013-08-05 09:22:00,
2013-08-05 05:28:00,50.3,48.9,30.03,West,267,0.0,0.0,95,0.00,,---,0.00,0.00,VWS V14.01,2013-08-05 09:28:00,
2013-08-05 05:30:00,52.1,50.7,30.01,West,267,0.0,0.0,95,0.00,,---,0.00,0.00,VWS V14.01,2013-08-05 09:30:00,
2013-08-05 05:33:00,50.1,48.7,30.04,West,267,0.0,0.0,95,0.00,,---,0.00,0.00,VWS V14.01,2013-08-05 09:33:00,
2013-08-05 05:38:00,49.9,48.8,30.04,West,267,0.0,0.0,96,0.00,,---,0.00,0.00,VWS V14.01,2013-08-05 09:38:00,
2013-08-05 05:43:00,49.8,48.7,30.04,West,267,0.0,0.0,96,0.00,,---,0.00,0.00,VWS V14.01,2013-08-05 09:43:00,
2013-08-05 05:48:00,49.7,48.6,30.04,West,267,0.0,0.0,96,0.00,,---,0.00,0.00,VWS V14.01,2013-08-05 09:48:00,
2013-08-05 05:53:00,49.6,48.5,30.04,West,267,0.0,0.0,96,0.00,,---,0.00,0.00,VWS V14.01,2013-08-05 09:53:00,
2013-08-05 05:58:00,49.5,48.4,30.04,West,267,0.0,0.0,96,0.00,,---,0.00,5.00,VWS V14.01,2013-08-05 09:58:00,
2013-08-05 06:00:00,51.6,50.2,30.02,West,267,0.0,4.0,95,0.00,,---,0.00,0.00,VWS V14.01,2013-08-05 10:00:00,
2013-08-05 06:03:00,49.5,48.4,30.04,West,267,0.0,0.0,96,0.00,,---,0.00,5.00,VWS V14.01,2013-08-05 10:03:00,
2013-08-05 06:09:00,49.4,48.3,30.04,West,267,0.0,0.0,96,0.00,,---,0.00,9.00,VWS V14.01,2013-08-05 10:09:00,
2013-08-05 06:14:00,49.4,48.3,30.04,West,267,0.0,0.0,96,0.00,,---,0.00,12.00,VWS V14.01,2013-08-05 10:14:00,
2013-08-05 06:19:00,49.5,48.4,30.05,West,267,0.0,0.0,96,0.00,,---,0.00,14.00,VWS V14.01,2013-08-05 10:19:00,
2013-08-05 06:24:00,49.4,48.3,30.05,West,267,0.0,0.0,96,0.00,,---,0.00,16.00,VWS V14.01,2013-08-05 10:24:00,
2013-08-05 06:29:00,49.3,48.2,30.05,West,267,0.0,0.0,96,0.00,,---,0.00,19.00,VWS V14.01,2013-08-05 10:29:00,
2013-08-05 06:30:00,50.2,49.1,30.03,West,267,0.0,0.0,96,0.00,,---,0.00,0.00,VWS V14.01,2013-08-05 10:30:00,
2013-08-05 06:34:00,49.3,48.2,30.05,West,267,0.0,0.0,96,0.00,,---,0.00,21.00,VWS V14.01,2013-08-05 10:34:00,
2013-08-05 06:39:00,49.4,48.6,30.05,West,267,0.0,0.0,97,0.00,,---,0.00,23.00,VWS V14.01,2013-08-05 10:39:00,
2013-08-05 06:44:00,49.6,48.8,30.05,West,267,0.0,0.0,97,0.00,,---,0.00,25.00,VWS V14.01,2013-08-05 10:44:00,
2013-08-05 06:49:00,50.0,49.2,30.05,West,267,0.0,0.0,97,0.00,,---,0.00,77.00,VWS V14.01,2013-08-05 10:49:00,
2013-08-05 06:54:00,50.6,49.8,30.05,West,267,0.0,0.0,97,0.00,,---,0.00,60.00,VWS V14.01,2013-08-05 10:54:00,
2013-08-05 07:00:00,51.0,50.2,30.06,West,267,0.0,0.0,97,0.00,,---,0.00,121.00,VWS V14.01,2013-08-05 11:00:00,
2013-08-05 07:05:00,51.4,50.6,30.06,West,267,0.0,0.0,97,0.00,,---,0.00,65.00,VWS V14.01,2013-08-05 11:05:00,
2013-08-05 07:10:00,51.9,51.1,30.06,West,267,0.0,0.0,97,0.00,,---,0.00,155.00,VWS V14.01,2013-08-05 11:10:00,
2013-08-05 07:15:00,52.7,52.2,30.06,West,267,0.0,0.0,98,0.00,,---,0.00,171.00,VWS V14.01,2013-08-05 11:15:00,
2013-08-05 07:20:00,53.6,53.0,30.06,West,267,0.0,0.0,98,0.00,,---,0.00,186.00,VWS V14.01,2013-08-05 11:20:00,
2013-08-05 07:24:00,54.0,53.2,30.07,West,267,0.0,0.0,97,0.00,,---,0.00,202.00,VWS V14.01,2013-08-05 11:24:00,
2013-08-05 07:30:00,54.6,53.8,30.07,West,267,0.0,0.0,97,0.00,,---,0.00,221.00,VWS V14.01,2013-08-05 11:30:00,
2013-08-05 07:35:00,55.4,54.6,30.07,West,267,0.0,0.0,97,0.00,,---,0.00,239.00,VWS V14.01,2013-08-05 11:35:00,
2013-08-05 07:40:00,56.2,55.4,30.07,West,267,0.0,0.0,97,0.00,,---,0.00,253.00,VWS V14.01,2013-08-05 11:40:00,
2013-08-05 07:45:00,56.6,54.9,30.07,West,267,0.0,0.0,94,0.00,,---,0.00,281.00,VWS V14.01,2013-08-05 11:45:00,
2013-08-05 07:50:00,56.7,53.8,30.07,West,267,0.0,2.0,90,0.00,,---,0.00,299.00,VWS V14.01,2013-08-05 11:50:00,
2013-08-05 07:55:00,57.1,53.9,30.07,West,272,0.0,5.0,89,0.00,,---,0.00,313.00,VWS V14.01,2013-08-05 11:55:00,
2013-08-05 08:00:00,57.7,53.9,30.07,West,272,0.0,0.0,87,0.00,,---,0.00,330.00,VWS V14.01,2013-08-05 12:00:00,
2013-08-05 08:05:00,58.3,54.5,30.07,West,272,0.0,0.0,87,0.00,,---,0.00,348.00,VWS V14.01,2013-08-05 12:05:00,
2013-08-05 08:10:00,59.3,54.5,30.07,West,272,0.0,0.0,84,0.00,,---,0.00,360.00,VWS V14.01,2013-08-05 12:10:00,
2013-08-05 08:16:00,59.9,54.1,30.08,West,272,0.0,2.0,81,0.00,,---,0.00,378.00,VWS V14.01,2013-08-05 12:16:00,
2013-08-05 08:21:00,60.0,53.8,30.08,West,269,1.0,3.0,80,0.00,,---,0.00,394.00,VWS V14.01,2013-08-05 12:21:00,
2013-08-05 08:26:00,60.4,52.8,30.08,WNW,285,2.0,5.0,76,0.00,,---,0.00,408.00,VWS V14.01,2013-08-05 12:26:00,
2013-08-05 08:30:00,54.6,53.8,30.07,West,267,0.0,0.0,97,0.00,,---,0.00,221.00,VWS V14.01,2013-08-05 12:30:00,
2013-08-05 08:31:00,60.9,52.9,30.08,West,281,0.0,1.0,75,0.00,,---,0.00,427.00,VWS V14.01,2013-08-05 12:31:00,
2013-08-05 08:37:00,61.2,53.2,30.08,West,259,3.0,4.0,75,0.00,,---,0.00,443.00,VWS V14.01,2013-08-05 12:37:00,
2013-08-05 08:41:00,61.1,53.5,30.08,NNW,332,0.0,6.0,76,0.00,,---,0.00,457.00,VWS V14.01,2013-08-05 12:41:00,
2013-08-05 08:46:00,61.8,53.4,30.08,NW,315,0.0,6.0,74,0.00,,---,0.00,473.00,VWS V14.01,2013-08-05 12:46:00,
2013-08-05 08:52:00,62.1,51.8,30.08,WNW,290,0.0,7.0,69,0.00,,---,0.00,489.00,VWS V14.01,2013-08-05 12:52:00,
2013-08-05 08:57:00,62.4,52.1,30.08,SW,215,0.0,7.0,69,0.00,,---,0.00,501.00,VWS V14.01,2013-08-05 12:57:00,
2013-08-05 09:00:00,57.7,54.2,30.07,West,272,0.0,5.0,88,0.00,,---,0.00,329.00,VWS V14.01,2013-08-05 13:00:00,
2013-08-05 09:01:00,62.6,52.3,30.08,SW,236,0.0,0.0,69,0.00,,---,0.00,515.00,VWS V14.01,2013-08-05 13:01:00,
2013-08-05 09:07:00,63.1,53.6,30.08,ESE,115,0.0,3.0,71,0.00,,---,0.00,529.00,VWS V14.01,2013-08-05 13:07:00,
2013-08-05 09:12:00,63.4,52.7,30.08,WSW,253,0.0,3.0,68,0.00,,---,0.00,547.00,VWS V14.01,2013-08-05 13:12:00,
2013-08-05 09:18:00,63.6,53.7,30.08,NE,50,1.0,9.0,70,0.00,,---,0.00,561.00,VWS V14.01,2013-08-05 13:18:00,
2013-08-05 09:23:00,63.8,53.0,30.08,SW,215,0.0,9.0,68,0.00,,---,0.00,575.00,VWS V14.01,2013-08-05 13:23:00,
2013-08-05 09:27:00,63.8,52.7,30.08,East,80,0.0,9.0,67,0.00,,---,0.00,591.00,VWS V14.01,2013-08-05 13:27:00,
2013-08-05 09:30:00,60.7,52.7,30.08,West,281,0.0,5.0,75,0.00,,---,0.00,422.00,VWS V14.01,2013-08-05 13:30:00,
2013-08-05 09:33:00,64.2,53.0,30.08,NE,55,0.0,0.0,67,0.00,,---,0.00,603.00,VWS V14.01,2013-08-05 13:33:00,
2013-08-05 09:38:00,64.4,51.5,30.08,SW,229,0.0,10.0,63,0.00,,---,0.00,615.00,VWS V14.01,2013-08-05 13:38:00,
2013-08-05 09:44:00,64.5,52.1,30.08,West,269,5.0,10.0,64,0.00,,---,0.00,628.00,VWS V14.01,2013-08-05 13:44:00,
2013-08-05 09:49:00,64.3,53.1,30.08,WNW,298,2.0,10.0,67,0.00,,---,0.00,643.00,VWS V14.01,2013-08-05 13:49:00,
2013-08-05 09:54:00,64.6,52.2,30.08,WSW,239,0.0,10.0,64,0.00,,---,0.00,684.00,VWS V14.01,2013-08-05 13:54:00,
2013-08-05 09:59:00,65.0,52.5,30.08,SSW,200,0.0,10.0,64,0.00,,---,0.00,675.00,VWS V14.01,2013-08-05 13:59:00,
2013-08-05 10:00:00,62.6,52.3,30.08,SW,236,0.0,7.0,69,0.00,,---,0.00,510.00,VWS V14.01,2013-08-05 14:00:00,
2013-08-05 10:04:00,65.5,53.0,30.08,WSW,258,5.0,7.0,64,0.00,,---,0.00,712.00,VWS V14.01,2013-08-05 14:04:00,
2013-08-05 10:09:00,65.8,53.7,30.08,West,271,0.0,8.0,65,0.00,,---,0.00,749.00,VWS V14.01,2013-08-05 14:09:00,
2013-08-05 10:14:00,65.7,51.5,30.08,NW,306,0.0,11.0,60,0.00,,---,0.00,715.00,VWS V14.01,2013-08-05 14:14:00,
2013-08-05 10:19:00,65.7,53.6,30.08,WSW,248,0.0,11.0,65,0.00,,---,0.00,722.00,VWS V14.01,2013-08-05 14:19:00,
2013-08-05 10:24:00,66.1,54.0,30.07,West,260,1.0,11.0,65,0.00,,---,0.00,737.00,VWS V14.01,2013-08-05 14:24:00,
2013-08-05 10:29:00,66.6,53.2,30.08,SW,223,3.0,11.0,62,0.00,,---,0.00,751.00,VWS V14.01,2013-08-05 14:29:00,
2013-08-05 10:30:00,64.0,53.2,30.08,NE,55,0.0,9.0,68,0.00,,---,0.00,592.00,VWS V14.01,2013-08-05 14:30:00,
2013-08-05 10:34:00,66.7,51.9,30.08,West,266,2.0,10.0,59,0.00,,---,0.00,751.00,VWS V14.01,2013-08-05 14:34:00,
2013-08-05 10:39:00,66.8,52.5,30.07,ENE,65,0.0,10.0,60,0.00,,---,0.00,761.00,VWS V14.01,2013-08-05 14:39:00,
2013-08-05 10:44:00,67.0,52.2,30.07,West,274,6.0,10.0,59,0.00,,---,0.00,780.00,VWS V14.01,2013-08-05 14:44:00,
2013-08-05 10:49:00,67.1,52.8,30.07,SSW,204,2.0,11.0,60,0.00,,---,0.00,726.00,VWS V14.01,2013-08-05 14:49:00,
2013-08-05 10:54:00,67.6,52.8,30.07,ENE,62,0.0,11.0,59,0.00,,---,0.00,786.00,VWS V14.01,2013-08-05 14:54:00,
2013-08-05 10:59:00,67.6,51.4,30.07,NNW,331,4.0,11.0,56,0.00,,---,0.00,795.00,VWS V14.01,2013-08-05 14:59:00,
2013-08-05 11:00:00,65.2,53.2,30.08,East,95,0.0,10.0,65,0.00,,---,0.00,679.00,VWS V14.01,2013-08-05 15:00:00,
2013-08-05 11:04:00,67.6,51.8,30.07,NNE,27,2.0,7.0,57,0.00,,---,0.00,766.00,VWS V14.01,2013-08-05 15:04:00,
2013-08-05 11:10:00,68.4,51.1,30.07,NNW,340,0.0,8.0,54,0.00,,---,0.00,810.00,VWS V14.01,2013-08-05 15:10:00,
2013-08-05 11:15:00,68.5,51.7,30.07,NNW,345,3.0,8.0,55,0.00,,---,0.00,817.00,VWS V14.01,2013-08-05 15:15:00,
2013-08-05 11:20:00,68.7,52.9,30.07,North,10,1.0,8.0,57,0.00,,---,0.00,819.00,VWS V14.01,2013-08-05 15:20:00,
2013-08-05 11:25:00,68.9,51.1,30.06,East,92,0.0,9.0,53,0.00,,---,0.00,831.00,VWS V14.01,2013-08-05 15:25:00,
2013-08-05 11:30:00,68.5,50.7,30.06,NE,53,0.0,0.0,53,0.00,,---,0.00,840.00,VWS V14.01,2013-08-05 15:30:00,
2013-08-05 11:35:00,68.5,51.2,30.06,West,259,1.0,7.0,54,0.00,,---,0.00,847.00,VWS V14.01,2013-08-05 15:35:00,
2013-08-05 11:40:00,68.7,51.9,30.06,ENE,72,0.0,8.0,55,0.00,,---,0.00,854.00,VWS V14.01,2013-08-05 15:40:00,
2013-08-05 11:45:00,69.0,50.1,30.06,ENE,59,0.0,8.0,51,0.00,,---,0.00,858.00,VWS V14.01,2013-08-05 15:45:00,
2013-08-05 11:51:00,69.5,50.1,30.06,NNE,17,0.0,13.0,50,0.00,,---,0.00,867.00,VWS V14.01,2013-08-05 15:51:00,
2013-08-05 11:55:00,69.4,50.5,30.06,SW,217,3.0,13.0,51,0.00,,---,0.00,870.00,VWS V14.01,2013-08-05 15:55:00,
2013-08-05 12:00:00,67.5,50.8,30.07,West,271,7.0,11.0,55,0.00,,---,0.00,795.00,VWS V14.01,2013-08-05 16:00:00,
2013-08-05 12:01:00,69.6,50.7,30.06,ENE,74,0.0,1.0,51,0.00,,---,0.00,874.00,VWS V14.01,2013-08-05 16:01:00,
2013-08-05 12:06:00,70.3,50.8,30.05,WNW,292,4.0,14.0,50,0.00,,---,0.00,879.00,VWS V14.01,2013-08-05 16:06:00,
2013-08-05 12:11:00,69.7,48.6,30.05,WNW,290,0.0,14.0,47,0.00,,---,0.00,879.00,VWS V14.01,2013-08-05 16:11:00,
2013-08-05 12:16:00,69.9,51.0,30.05,SW,217,1.0,14.0,51,0.00,,---,0.00,884.00,VWS V14.01,2013-08-05 16:16:00,
2013-08-05 12:21:00,70.1,50.1,30.05,WSW,254,8.0,14.0,49,0.00,,---,0.00,886.00,VWS V14.01,2013-08-05 16:21:00,
2013-08-05 12:26:00,69.7,48.6,30.05,SSE,164,0.0,14.0,47,0.00,,---,0.00,886.00,VWS V14.01,2013-08-05 16:26:00,
2013-08-05 12:30:00,68.6,50.8,30.07,WSW,246,0.0,11.0,53,0.00,,---,0.00,840.00,VWS V14.01,2013-08-05 16:30:00,
2013-08-05 12:31:00,70.2,51.2,30.05,SE,134,0.0,6.0,51,0.00,,---,0.00,891.00,VWS V14.01,2013-08-05 16:31:00,
2013-08-05 12:36:00,70.3,48.6,30.05,SSW,209,0.0,7.0,46,0.00,,---,0.00,893.00,VWS V14.01,2013-08-05 16:36:00,
2013-08-05 12:41:00,70.5,48.8,30.05,ENE,69,0.0,7.0,46,0.00,,---,0.00,893.00,VWS V14.01,2013-08-05 16:41:00,
2013-08-05 12:47:00,70.3,50.3,30.05,NE,49,0.0,8.0,49,0.00,,---,0.00,896.00,VWS V14.01,2013-08-05 16:47:00,
2013-08-05 12:52:00,70.6,49.4,30.05,ENE,76,7.0,8.0,47,0.00,,---,0.00,895.00,VWS V14.01,2013-08-05 16:52:00,
2013-08-05 12:57:00,71.5,51.9,30.05,SE,130,2.0,8.0,50,0.00,,---,0.00,896.00,VWS V14.01,2013-08-05 16:57:00,
2013-08-05 13:00:00,69.6,50.2,30.06,East,96,1.0,13.0,50,0.00,,---,0.00,874.00,VWS V14.01,2013-08-05 17:00:00,
2013-08-05 13:02:00,71.8,49.9,30.05,West,269,0.0,10.0,46,0.00,,---,0.00,895.00,VWS V14.01,2013-08-05 17:02:00,
2013-08-05 13:07:00,71.9,51.2,30.04,SE,133,6.0,10.0,48,0.00,,---,0.00,895.00,VWS V14.01,2013-08-05 17:07:00,
2013-08-05 13:12:00,71.9,51.2,30.05,NNE,26,0.0,12.0,48,0.00,,---,0.00,895.00,VWS V14.01,2013-08-05 17:12:00,
2013-08-05 13:17:00,71.6,50.9,30.05,SW,215,0.0,12.0,48,0.00,,---,0.00,896.00,VWS V14.01,2013-08-05 17:17:00,
2013-08-05 13:22:00,71.6,51.5,30.05,WNW,290,7.0,12.0,49,0.00,,---,0.00,893.00,VWS V14.01,2013-08-05 17:22:00,
2013-08-05 13:27:00,71.7,49.8,30.04,SE,140,0.0,12.0,46,0.00,,---,0.00,889.00,VWS V14.01,2013-08-05 17:27:00,
2013-08-05 13:30:00,70.0,53.1,30.05,WSW,251,3.0,14.0,55,0.00,,---,0.00,889.00,VWS V14.01,2013-08-05 17:30:00,
2013-08-05 13:32:00,71.5,50.2,30.04,North,5,0.0,7.0,47,0.00,,---,0.00,886.00,VWS V14.01,2013-08-05 17:32:00,
2013-08-05 13:37:00,71.7,50.4,30.04,NNE,28,0.0,7.0,47,0.00,,---,0.00,882.00,VWS V14.01,2013-08-05 17:37:00,
2013-08-05 13:42:00,72.0,51.8,30.04,ENE,77,0.0,7.0,49,0.00,,---,0.00,879.00,VWS V14.01,2013-08-05 17:42:00,
2013-08-05 13:47:00,72.4,53.3,30.04,WSW,256,4.0,10.0,51,0.00,,---,0.00,879.00,VWS V14.01,2013-08-05 17:47:00,
2013-08-05 13:52:00,72.2,51.4,30.04,West,280,4.0,10.0,48,0.00,,---,0.00,872.00,VWS V14.01,2013-08-05 17:52:00,
2013-08-05 13:57:00,72.2,51.4,30.04,ESE,113,0.0,10.0,48,0.00,,---,0.00,868.00,VWS V14.01,2013-08-05 17:57:00,
2013-08-05 14:00:00,71.7,51.0,30.05,NNW,343,0.0,8.0,48,0.00,,---,0.00,898.00,VWS V14.01,2013-08-05 18:00:00,
2013-08-05 14:02:00,72.3,51.0,30.04,ENE,69,5.0,5.0,47,0.00,,---,0.00,865.00,VWS V14.01,2013-08-05 18:02:00,
2013-08-05 14:08:00,72.0,50.7,30.04,NE,38,0.0,6.0,47,0.00,,---,0.00,856.00,VWS V14.01,2013-08-05 18:08:00,
2013-08-05 14:13:00,72.1,53.0,30.04,NNE,19,0.0,8.0,51,0.00,,---,0.00,851.00,VWS V14.01,2013-08-05 18:13:00,
2013-08-05 14:18:00,72.5,51.7,30.04,South,180,0.0,8.0,48,0.00,,---,0.00,846.00,VWS V14.01,2013-08-05 18:18:00,
2013-08-05 14:23:00,72.8,52.0,30.04,East,81,0.0,8.0,48,0.00,,---,0.00,837.00,VWS V14.01,2013-08-05 18:23:00,
2013-08-05 14:28:00,73.0,51.0,30.04,West,269,1.0,8.0,46,0.00,,---,0.00,833.00,VWS V14.01,2013-08-05 18:28:00,
2013-08-05 14:30:00,71.7,51.5,30.04,WSW,254,4.0,12.0,49,0.00,,---,0.00,886.00,VWS V14.01,2013-08-05 18:30:00,
2013-08-05 14:33:00,73.1,52.3,30.04,WNW,283,4.0,9.0,48,0.00,,---,0.00,826.00,VWS V14.01,2013-08-05 18:33:00,
2013-08-05 14:38:00,73.1,52.3,30.04,NNE,25,2.0,9.0,48,0.00,,---,0.00,821.00,VWS V14.01,2013-08-05 18:38:00,
2013-08-05 14:44:00,72.7,51.3,30.04,South,189,2.0,9.0,47,0.00,,---,0.00,812.00,VWS V14.01,2013-08-05 18:44:00,
2013-08-05 14:49:00,72.2,50.9,30.04,WSW,257,8.0,11.0,47,0.00,,---,0.00,805.00,VWS V14.01,2013-08-05 18:49:00,
2013-08-05 14:54:00,72.4,52.7,30.04,SW,229,0.0,11.0,50,0.00,,---,0.00,796.00,VWS V14.01,2013-08-05 18:54:00,
2013-08-05 14:59:00,72.5,52.8,30.03,NE,44,0.0,11.0,50,0.00,,---,0.00,788.00,VWS V14.01,2013-08-05 18:59:00,
2013-08-05 15:00:00,72.4,51.6,30.04,WSW,253,1.0,10.0,48,0.00,,---,0.00,863.00,VWS V14.01,2013-08-05 19:00:00,
2013-08-05 15:04:00,72.7,51.3,30.03,ENE,76,3.0,8.0,47,0.00,,---,0.00,779.00,VWS V14.01,2013-08-05 19:04:00,
2013-08-05 15:09:00,73.1,52.3,30.03,West,259,6.0,8.0,48,0.00,,---,0.00,770.00,VWS V14.01,2013-08-05 19:09:00,
2013-08-05 15:14:00,73.3,52.5,30.03,WNW,283,1.0,8.0,48,0.00,,---,0.00,759.00,VWS V14.01,2013-08-05 19:14:00,
2013-08-05 15:19:00,73.1,51.1,30.03,ESE,106,1.0,8.0,46,0.00,,---,0.00,749.00,VWS V14.01,2013-08-05 19:19:00,
2013-08-05 15:24:00,73.4,53.1,30.03,NE,49,0.0,8.0,49,0.00,,---,0.00,740.00,VWS V14.01,2013-08-05 19:24:00,
2013-08-05 15:29:00,73.5,52.1,30.03,ENE,69,0.0,8.0,47,0.00,,---,0.00,729.00,VWS V14.01,2013-08-05 19:29:00,
2013-08-05 15:30:00,73.0,52.2,30.04,West,273,0.0,8.0,48,0.00,,---,0.00,830.00,VWS V14.01,2013-08-05 19:30:00,
2013-08-05 15:34:00,73.8,51.8,30.03,WSW,256,0.0,4.0,46,0.00,,---,0.00,717.00,VWS V14.01,2013-08-05 19:34:00,
2013-08-05 15:39:00,74.2,52.7,30.02,WSW,256,0.0,4.0,47,0.00,,---,0.00,708.00,VWS V14.01,2013-08-05 19:39:00,
2013-08-05 15:44:00,73.9,52.4,30.02,West,269,0.0,5.0,47,0.00,,---,0.00,698.00,VWS V14.01,2013-08-05 19:44:00,
2013-08-05 15:49:00,73.5,51.5,30.02,WSW,243,7.0,11.0,46,0.00,,---,0.00,686.00,VWS V14.01,2013-08-05 19:49:00,
2013-08-05 15:54:00,73.3,50.7,30.02,ENE,70,0.0,11.0,45,0.00,,---,0.00,675.00,VWS V14.01,2013-08-05 19:54:00,
2013-08-05 15:59:00,73.5,53.2,30.02,SW,228,5.0,11.0,49,0.00,,---,0.00,661.00,VWS V14.01,2013-08-05 19:59:00,
2013-08-05 16:00:00,72.6,52.4,30.03,ENE,78,4.0,11.0,49,0.00,,---,0.00,784.00,VWS V14.01,2013-08-05 20:00:00,
2013-08-05 16:05:00,73.8,52.3,30.02,SW,219,0.0,5.0,47,0.00,,---,0.00,649.00,VWS V14.01,2013-08-05 20:05:00,
2013-08-05 16:10:00,74.0,51.3,30.02,SW,219,1.0,9.0,45,0.00,,---,0.00,638.00,VWS V14.01,2013-08-05 20:10:00,
2013-08-05 16:15:00,73.9,51.8,30.02,SW,219,0.0,9.0,46,0.00,,---,0.00,622.00,VWS V14.01,2013-08-05 20:15:00,
2013-08-05 16:20:00,73.7,52.2,30.02,WSW,240,0.0,9.0,47,0.00,,---,0.00,612.00,VWS V14.01,2013-08-05 20:20:00,
2013-08-05 16:25:00,73.8,52.3,30.02,West,259,8.0,9.0,47,0.00,,---,0.00,598.00,VWS V14.01,2013-08-05 20:25:00,
2013-08-05 16:30:00,73.9,51.8,30.02,West,275,5.0,9.0,46,0.00,,---,0.00,584.00,VWS V14.01,2013-08-05 20:30:00,
2013-08-05 16:35:00,74.0,51.9,30.02,West,271,7.0,7.0,46,0.00,,---,0.00,571.00,VWS V14.01,2013-08-05 20:35:00,
2013-08-05 16:41:00,74.1,52.0,30.02,West,269,4.0,7.0,46,0.00,,---,0.00,557.00,VWS V14.01,2013-08-05 20:41:00,
2013-08-05 16:46:00,74.0,51.9,30.02,WNW,291,3.0,8.0,46,0.00,,---,0.00,540.00,VWS V14.01,2013-08-05 20:46:00,
2013-08-05 16:51:00,73.7,51.7,30.02,WSW,241,0.0,8.0,46,0.00,,---,0.00,526.00,VWS V14.01,2013-08-05 20:51:00,
2013-08-05 16:56:00,73.9,52.4,30.02,NE,49,1.0,8.0,47,0.00,,---,0.00,512.00,VWS V14.01,2013-08-05 20:56:00,
2013-08-05 17:00:00,73.5,53.2,30.02,SW,230,0.0,11.0,49,0.00,,---,0.00,659.00,VWS V14.01,2013-08-05 21:00:00,
2013-08-05 17:02:00,73.9,51.8,30.02,SW,236,0.0,0.0,46,0.00,,---,0.00,496.00,VWS V14.01,2013-08-05 21:02:00,
2013-08-05 17:07:00,74.0,51.3,30.02,SW,236,0.0,0.0,45,0.00,,---,0.00,482.00,VWS V14.01,2013-08-05 21:07:00,
2013-08-05 17:12:00,74.1,51.4,30.02,West,272,0.0,7.0,45,0.00,,---,0.00,468.00,VWS V14.01,2013-08-05 21:12:00,
2013-08-05 17:17:00,73.9,50.6,30.02,WSW,258,0.0,7.0,44,0.00,,---,0.00,450.00,VWS V14.01,2013-08-05 21:17:00,
2013-08-05 17:22:00,73.8,52.3,30.02,East,94,0.0,7.0,47,0.00,,---,0.00,434.00,VWS V14.01,2013-08-05 21:22:00,
2013-08-05 17:27:00,73.7,52.2,30.02,NE,48,1.0,7.0,47,0.00,,---,0.00,424.00,VWS V14.01,2013-08-05 21:27:00,
2013-08-05 17:30:00,73.9,51.8,30.02,West,275,5.0,9.0,46,0.00,,---,0.00,584.00,VWS V14.01,2013-08-05 21:30:00,
2013-08-05 17:32:00,73.5,52.1,30.02,SE,138,0.0,9.0,47,0.00,,---,0.00,404.00,VWS V14.01,2013-08-05 21:32:00,
2013-08-05 17:37:00,73.6,51.6,30.02,WNW,282,0.0,9.0,46,0.00,,---,0.00,387.00,VWS V14.01,2013-08-05 21:37:00,
2013-08-05 17:42:00,73.6,51.6,30.02,SW,230,5.0,9.0,46,0.00,,---,0.00,373.00,VWS V14.01,2013-08-05 21:42:00,
2013-08-05 17:47:00,73.5,51.5,30.02,WSW,243,5.0,9.0,46,0.00,,---,0.00,355.00,VWS V14.01,2013-08-05 21:47:00,
2013-08-05 17:52:00,73.6,52.2,30.02,West,277,0.0,9.0,47,0.00,,---,0.00,341.00,VWS V14.01,2013-08-05 21:52:00,
2013-08-05 17:57:00,73.3,50.7,30.02,West,277,0.0,9.0,45,0.00,,---,0.00,90.00,VWS V14.01,2013-08-05 21:57:00,
2013-08-05 18:00:00,73.9,51.2,30.02,SW,236,0.0,8.0,45,0.00,,---,0.00,501.00,VWS V14.01,2013-08-05 22:00:00,
2013-08-05 18:02:00,72.9,51.5,30.02,WNW,296,0.0,7.0,47,0.00,,---,0.00,30.00,VWS V14.01,2013-08-05 22:02:00,
2013-08-05 18:07:00,72.4,51.6,30.02,SE,138,0.0,7.0,48,0.00,,---,0.00,35.00,VWS V14.01,2013-08-05 22:07:00,
2013-08-05 18:12:00,71.9,51.7,30.02,SE,138,0.0,7.0,49,0.00,,---,0.00,33.00,VWS V14.01,2013-08-05 22:12:00,
2013-08-05 18:17:00,71.6,52.0,30.02,SSW,204,2.0,7.0,50,0.00,,---,0.00,30.00,VWS V14.01,2013-08-05 22:17:00,
2013-08-05 18:22:00,71.5,51.4,30.02,SSW,204,0.0,7.0,49,0.00,,---,0.00,37.00,VWS V14.01,2013-08-05 22:22:00,
2013-08-05 18:28:00,71.3,51.7,30.02,WSW,251,0.0,7.0,50,0.00,,---,0.00,69.00,VWS V14.01,2013-08-05 22:28:00,
2013-08-05 18:30:00,73.7,51.7,30.02,West,277,4.0,7.0,46,0.00,,---,0.00,411.00,VWS V14.01,2013-08-05 22:30:00,
2013-08-05 18:33:00,71.2,51.6,30.03,WSW,251,0.0,0.0,50,0.00,,---,0.00,63.00,VWS V14.01,2013-08-05 22:33:00,
2013-08-05 18:38:00,71.0,50.9,30.03,WSW,251,0.0,0.0,49,0.00,,---,0.00,120.00,VWS V14.01,2013-08-05 22:38:00,
2013-08-05 18:43:00,70.9,52.4,30.03,WSW,251,0.0,2.0,52,0.00,,---,0.00,128.00,VWS V14.01,2013-08-05 22:43:00,
2013-08-05 18:48:00,70.7,51.7,30.03,WSW,247,0.0,6.0,51,0.00,,---,0.00,25.00,VWS V14.01,2013-08-05 22:48:00,
2013-08-05 18:53:00,70.4,50.9,30.03,WSW,247,0.0,6.0,50,0.00,,---,0.00,26.00,VWS V14.01,2013-08-05 22:53:00,
2013-08-05 18:58:00,70.3,51.3,30.04,WSW,247,0.0,6.0,51,0.00,,---,0.00,21.00,VWS V14.01,2013-08-05 22:58:00,
2013-08-05 19:00:00,73.1,51.1,30.02,West,259,0.0,9.0,46,0.00,,---,0.00,53.00,VWS V14.01,2013-08-05 23:00:00,
2013-08-05 19:03:00,70.0,51.1,30.04,WSW,247,0.0,0.0,51,0.00,,---,0.00,19.00,VWS V14.01,2013-08-05 23:03:00,
2013-08-05 19:08:00,69.7,53.3,30.04,WSW,247,0.0,0.0,56,0.00,,---,0.00,16.00,VWS V14.01,2013-08-05 23:08:00,
2013-08-05 19:13:00,69.2,54.3,30.04,WSW,247,0.0,0.0,59,0.00,,---,0.00,16.00,VWS V14.01,2013-08-05 23:13:00,
2013-08-05 19:18:00,68.7,53.8,30.04,WSW,247,0.0,0.0,59,0.00,,---,0.00,16.00,VWS V14.01,2013-08-05 23:18:00,
2013-08-05 19:23:00,68.2,54.2,30.04,WSW,247,0.0,0.0,61,0.00,,---,0.00,16.00,VWS V14.01,2013-08-05 23:23:00,
2013-08-05 19:29:00,67.5,53.6,30.05,WSW,247,0.0,0.0,61,0.00,,---,0.00,14.00,VWS V14.01,2013-08-05 23:29:00,
2013-08-05 19:30:00,71.3,50.6,30.02,WSW,251,0.0,7.0,48,0.00,,---,0.00,47.00,VWS V14.01,2013-08-05 23:30:00,
2013-08-05 19:34:00,66.8,54.7,30.05,WSW,247,0.0,0.0,65,0.00,,---,0.00,12.00,VWS V14.01,2013-08-05 23:34:00,
2013-08-05 19:39:00,66.1,54.0,30.05,WSW,247,0.0,0.0,65,0.00,,---,0.00,12.00,VWS V14.01,2013-08-05 23:39:00,
2013-08-05 19:44:00,65.5,54.3,30.05,WSW,247,0.0,0.0,67,0.00,,---,0.00,11.00,VWS V14.01,2013-08-05 23:44:00,
2013-08-05 19:49:00,65.0,54.6,30.05,WSW,247,0.0,0.0,69,0.00,,---,0.00,9.00,VWS V14.01,2013-08-05 23:49:00,
2013-08-05 19:54:00,64.4,54.8,30.05,WSW,247,0.0,0.0,71,0.00,,---,0.00,5.00,VWS V14.01,2013-08-05 23:54:00,
2013-08-05 19:59:00,64.0,54.4,30.05,WSW,247,0.0,0.0,71,0.00,,---,0.00,0.00,VWS V14.01,2013-08-05 23:59:00,
2013-08-05 20:00:00,70.2,51.8,30.04,WSW,247,0.0,6.0,52,0.00,,---,0.00,21.00,VWS V14.01,2013-08-06 00:00:00,
2013-08-05 20:04:00,63.5,54.7,30.05,WSW,247,0.0,0.0,73,0.00,,---,0.00,0.00,VWS V14.01,2013-08-06 00:04:00,
2013-08-05 20:09:00,62.9,54.5,30.05,WSW,247,0.0,0.0,74,0.00,,---,0.00,0.00,VWS V14.01,2013-08-06 00:09:00,
2013-08-05 20:14:00,62.2,53.8,30.06,WSW,247,0.0,0.0,74,0.00,,---,0.00,0.00,VWS V14.01,2013-08-06 00:14:00,
2013-08-05 20:19:00,61.7,53.3,30.06,WSW,247,0.0,0.0,74,0.00,,---,0.00,0.00,VWS V14.01,2013-08-06 00:19:00,
2013-08-05 20:24:00,61.3,53.0,30.06,WSW,247,0.0,0.0,74,0.00,,---,0.00,0.00,VWS V14.01,2013-08-06 00:24:00,
2013-08-05 20:29:00,60.9,52.9,30.06,WSW,247,0.0,0.0,75,0.00,,---,0.00,0.00,VWS V14.01,2013-08-06 00:29:00,
2013-08-05 20:30:00,67.3,53.8,30.05,WSW,247,0.0,0.0,62,0.00,,---,0.00,14.00,VWS V14.01,2013-08-06 00:30:00,
2013-08-05 20:35:00,60.6,53.7,30.06,WSW,247,0.0,0.0,78,0.00,,---,0.00,0.00,VWS V14.01,2013-08-06 00:35:00,
2013-08-05 20:40:00,60.3,53.4,30.06,WSW,247,0.0,0.0,78,0.00,,---,0.00,0.00,VWS V14.01,2013-08-06 00:40:00,
2013-08-05 20:45:00,60.0,53.1,30.06,WSW,247,0.0,0.0,78,0.00,,---,0.00,0.00,VWS V14.01,2013-08-06 00:45:00,
2013-08-05 20:50:00,59.6,53.1,30.06,WSW,247,0.0,0.0,79,0.00,,---,0.00,0.00,VWS V14.01,2013-08-06 00:50:00,
2013-08-05 20:55:00,59.2,53.0,30.07,WSW,247,0.0,0.0,80,0.00,,---,0.00,0.00,VWS V14.01,2013-08-06 00:55:00,
2013-08-05 21:00:00,63.9,54.3,30.05,WSW,247,0.0,0.0,71,0.00,,---,0.00,0.00,VWS V14.01,2013-08-06 01:00:00,
2013-08-05 21:01:00,58.8,53.0,30.07,WSW,247,0.0,0.0,81,0.00,,---,0.00,0.00,VWS V14.01,2013-08-06 01:01:00,
2013-08-05 21:06:00,58.6,53.1,30.07,WSW,247,0.0,0.0,82,0.00,,---,0.00,0.00,VWS V14.01,2013-08-06 01:06:00,
2013-08-05 21:12:00,58.4,52.9,30.07,WSW,247,0.0,0.0,82,0.00,,---,0.00,0.00,VWS V14.01,2013-08-06 01:12:00,
2013-08-05 21:17:00,58.2,53.1,30.07,WSW,247,0.0,0.0,83,0.00,,---,0.00,0.00,VWS V14.01,2013-08-06 01:17:00,
2013-08-05 21:22:00,58.0,52.9,30.07,WSW,247,0.0,0.0,83,0.00,,---,0.00,0.00,VWS V14.01,2013-08-06 01:22:00,
2013-08-05 21:27:00,57.8,52.7,30.07,WSW,247,0.0,0.0,83,0.00,,---,0.00,0.00,VWS V14.01,2013-08-06 01:27:00,
2013-08-05 21:30:00,60.9,52.9,30.06,WSW,247,0.0,0.0,75,0.00,,---,0.00,0.00,VWS V14.01,2013-08-06 01:30:00,
2013-08-05 21:33:00,57.5,52.7,30.07,WSW,247,0.0,0.0,84,0.00,,---,0.00,0.00,VWS V14.01,2013-08-06 01:33:00,
2013-08-05 21:38:00,57.1,52.6,30.07,WSW,247,0.0,0.0,85,0.00,,---,0.00,0.00,VWS V14.01,2013-08-06 01:38:00,
2013-08-05 21:43:00,56.8,52.7,30.08,WSW,247,0.0,0.0,86,0.00,,---,0.00,0.00,VWS V14.01,2013-08-06 01:43:00,
2013-08-05 21:48:00,56.5,52.4,30.08,WSW,247,0.0,0.0,86,0.00,,---,0.00,0.00,VWS V14.01,2013-08-06 01:48:00,
2013-08-05 21:53:00,56.3,52.5,30.07,WSW,247,0.0,0.0,87,0.00,,---,0.00,0.00,VWS V14.01,2013-08-06 01:53:00,
2013-08-05 21:58:00,56.2,52.4,30.08,WSW,247,0.0,0.0,87,0.00,,---,0.00,0.00,VWS V14.01,2013-08-06 01:58:00,
2013-08-05 22:00:00,58.9,52.8,30.07,WSW,247,0.0,0.0,80,0.00,,---,0.00,0.00,VWS V14.01,2013-08-06 02:00:00,
2013-08-05 22:03:00,56.0,52.2,30.08,WSW,247,0.0,0.0,87,0.00,,---,0.00,0.00,VWS V14.01,2013-08-06 02:03:00,
2013-08-05 22:08:00,55.8,52.0,30.08,WSW,247,0.0,0.0,87,0.00,,---,0.00,0.00,VWS V14.01,2013-08-06 02:08:00,
2013-08-05 22:14:00,55.6,52.1,30.08,WSW,247,0.0,0.0,88,0.00,,---,0.00,0.00,VWS V14.01,2013-08-06 02:14:00,
2013-08-05 22:19:00,55.4,51.9,30.08,WSW,247,0.0,0.0,88,0.00,,---,0.00,0.00,VWS V14.01,2013-08-06 02:19:00,
2013-08-05 22:24:00,55.0,51.5,30.08,WSW,247,0.0,0.0,88,0.00,,---,0.00,0.00,VWS V14.01,2013-08-06 02:24:00,
2013-08-05 22:29:00,54.6,51.4,30.08,WSW,247,0.0,0.0,89,0.00,,---,0.00,0.00,VWS V14.01,2013-08-06 02:29:00,
2013-08-05 22:30:00,57.7,52.9,30.07,WSW,247,0.0,0.0,84,0.00,,---,0.00,0.00,VWS V14.01,2013-08-06 02:30:00,
2013-08-05 22:34:00,54.3,51.1,30.08,WSW,247,0.0,0.0,89,0.00,,---,0.00,0.00,VWS V14.01,2013-08-06 02:34:00,
2013-08-05 22:39:00,54.0,51.1,30.07,WSW,247,0.0,0.0,90,0.00,,---,0.00,0.00,VWS V14.01,2013-08-06 02:39:00,
2013-08-05 22:44:00,53.8,51.2,30.07,WSW,247,0.0,0.0,91,0.00,,---,0.00,0.00,VWS V14.01,2013-08-06 02:44:00,
2013-08-05 22:49:00,53.7,51.1,30.07,WSW,247,0.0,0.0,91,0.00,,---,0.00,0.00,VWS V14.01,2013-08-06 02:49:00,
2013-08-05 22:54:00,53.6,51.0,30.07,WSW,247,0.0,0.0,91,0.00,,---,0.00,0.00,VWS V14.01,2013-08-06 02:54:00,
2013-08-05 23:00:00,53.4,50.8,30.07,WSW,247,0.0,0.0,91,0.00,,---,0.00,0.00,VWS V14.01,2013-08-06 03:00:00,
2013-08-05 23:05:00,53.2,50.7,30.08,WSW,247,0.0,0.0,91,0.00,,---,0.00,0.00,VWS V14.01,2013-08-06 03:05:00,
2013-08-05 23:10:00,52.9,50.3,30.08,WSW,247,0.0,0.0,91,0.00,,---,0.00,0.00,VWS V14.01,2013-08-06 03:10:00,
2013-08-05 23:15:00,52.7,50.5,30.08,WSW,247,0.0,0.0,92,0.00,,---,0.00,0.00,VWS V14.01,2013-08-06 03:15:00,
2013-08-05 23:20:00,52.6,50.3,30.08,WSW,247,0.0,0.0,92,0.00,,---,0.00,0.00,VWS V14.01,2013-08-06 03:20:00,
2013-08-05 23:25:00,52.5,50.2,30.08,WSW,247,0.0,0.0,92,0.00,,---,0.00,0.00,VWS V14.01,2013-08-06 03:25:00,
2013-08-05 23:30:00,52.4,50.2,30.08,WSW,247,0.0,0.0,92,0.00,,---,0.00,0.00,VWS V14.01,2013-08-06 03:30:00,
2013-08-05 23:35:00,52.2,50.0,30.08,WSW,247,0.0,0.0,92,0.00,,---,0.00,0.00,VWS V14.01,2013-08-06 03:35:00,
2013-08-05 23:40:00,52.0,49.8,30.08,WSW,247,0.0,0.0,92,0.00,,---,0.00,0.00,VWS V14.01,2013-08-06 03:40:00,
2013-08-05 23:45:00,51.8,49.8,30.08,WSW,247,0.0,0.0,93,0.00,,---,0.00,0.00,VWS V14.01,2013-08-06 03:45:00,
2013-08-05 23:50:00,51.7,49.8,30.08,WSW,247,0.0,0.0,93,0.00,,---,0.00,0.00,VWS V14.01,2013-08-06 03:50:00,
2013-08-05 23:55:00,51.6,49.7,30.08,WSW,247,0.0,0.0,93,0.00,,---,0.00,0.00,VWS V14.01,2013-08-06 03:55:00,